createdAt,value
2023-04-29T00:01:40.960Z,8.43
2023-04-29T00:04:09.317Z,8.57
2023-04-29T00:06:39.563Z,10.18
2023-04-29T00:09:06.922Z,8.60
2023-04-29T00:11:34.462Z,8.77
2023-04-29T00:14:01.931Z,9.15
2023-04-29T00:16:29.617Z,9.23
2023-04-29T00:18:57.598Z,9.52
2023-04-29T00:21:25.397Z,10.23
2023-04-29T00:23:53.147Z,9.77
2023-04-29T00:26:20.707Z,9.85
2023-04-29T00:28:49.101Z,9.27
2023-04-29T00:31:16.530Z,9.27
2023-04-29T00:33:45.153Z,10.13
2023-04-29T00:36:13.299Z,10.68
2023-04-29T00:38:40.664Z,9.63
2023-04-29T00:41:08.069Z,10.95
2023-04-29T00:43:35.520Z,10.60
2023-04-29T00:46:03.938Z,10.32
2023-04-29T00:48:33.053Z,10.35
2023-04-29T00:51:00.698Z,10.10
2023-04-29T00:53:28.330Z,9.98
2023-04-29T00:55:56.400Z,10.27
2023-04-29T00:58:30.250Z,10.75
2023-04-29T01:00:57.815Z,10.70
2023-04-29T01:03:25.389Z,11.55
2023-04-29T01:06:20.126Z,10.40
2023-04-29T01:09:05.954Z,10.73
2023-04-29T01:11:46.418Z,10.80
2023-04-29T01:14:13.978Z,10.70
2023-04-29T01:16:47.807Z,10.63
2023-04-29T01:19:44.152Z,10.95
2023-04-29T01:22:12.734Z,11.40
2023-04-29T01:24:40.508Z,10.65
2023-04-29T01:27:24.632Z,11.68
2023-04-29T01:30:01.565Z,11.40
2023-04-29T01:32:37.736Z,11.25
2023-04-29T01:35:25.126Z,10.77
2023-04-29T01:37:55.417Z,11.05
2023-04-29T01:40:47.836Z,10.70
2023-04-29T01:43:24.955Z,12.10
2023-04-29T01:45:56.546Z,13.35
2023-04-29T01:48:24.949Z,12.82
2023-04-29T01:50:52.383Z,15.20
2023-04-29T01:53:19.766Z,14.52
2023-04-29T01:55:47.559Z,14.95
2023-04-29T01:58:24.251Z,14.05
2023-04-29T02:01:11.884Z,14.60
2023-04-29T02:03:39.974Z,14.60
2023-04-29T02:06:10.272Z,14.90
2023-04-29T02:08:37.950Z,13.85
2023-04-29T02:11:05.909Z,17.02
2023-04-29T02:13:41.018Z,15.52
2023-04-29T02:16:09.852Z,15.32
2023-04-29T02:18:40.359Z,16.23
2023-04-29T02:21:08.076Z,15.80
2023-04-29T02:23:36.296Z,15.75
2023-04-29T02:26:06.373Z,15.30
2023-04-29T02:28:35.067Z,15.27
2023-04-29T02:31:02.692Z,14.65
2023-04-29T02:33:31.494Z,15.52
2023-04-29T02:35:59.807Z,15.80
2023-04-29T02:38:27.319Z,15.88
2023-04-29T02:40:54.677Z,16.27
2023-04-29T02:43:22.619Z,15.82
2023-04-29T02:45:50.071Z,15.68
2023-04-29T02:48:18.087Z,16.75
2023-04-29T02:50:45.519Z,16.48
2023-04-29T02:53:13.240Z,16.00
2023-04-29T02:55:41.902Z,16.42
2023-04-29T02:58:10.778Z,16.30
2023-04-29T03:00:38.203Z,16.42
2023-04-29T03:03:05.866Z,15.85
2023-04-29T03:05:34.908Z,17.13
2023-04-29T03:08:04.742Z,17.10
2023-04-29T03:10:32.442Z,16.77
2023-04-29T03:12:59.954Z,15.73
2023-04-29T03:15:27.384Z,16.45
2023-04-29T03:17:54.919Z,16.80
2023-04-29T03:20:22.425Z,16.92
2023-04-29T03:22:49.894Z,16.52
2023-04-29T03:25:17.404Z,16.80
2023-04-29T03:27:44.976Z,16.38
2023-04-29T03:30:12.584Z,16.52
2023-04-29T03:32:47.028Z,17.02
2023-04-29T03:35:15.948Z,18.48
2023-04-29T03:37:55.126Z,17.38
2023-04-29T03:40:25.924Z,16.95
2023-04-29T03:42:53.629Z,17.55
2023-04-29T03:45:21.262Z,16.38
2023-04-29T03:47:49.300Z,17.35
2023-04-29T03:50:16.793Z,18.77
2023-04-29T03:52:44.491Z,18.02
2023-04-29T03:55:15.374Z,17.48
2023-04-29T03:57:44.169Z,16.40
2023-04-29T04:00:13.133Z,17.00
2023-04-29T04:02:51.346Z,17.63
2023-04-29T04:05:22.650Z,16.50
2023-04-29T04:07:55.245Z,17.40
2023-04-29T04:13:32.010Z,18.83
2023-04-29T04:15:59.707Z,20.35
2023-04-29T04:18:27.228Z,19.60
2023-04-29T04:20:54.653Z,20.58
2023-04-29T04:23:22.019Z,19.65
2023-04-29T04:25:49.894Z,18.00
2023-04-29T04:28:37.178Z,19.13
2023-04-29T04:31:14.800Z,18.75
2023-04-29T04:33:42.506Z,17.90
2023-04-29T04:36:10.024Z,17.90
2023-04-29T04:38:37.601Z,17.63
2023-04-29T04:41:09.435Z,18.02
2023-04-29T04:43:39.903Z,17.92
2023-04-29T04:46:15.098Z,18.33
2023-04-29T04:48:53.028Z,17.48
2023-04-29T04:51:21.288Z,17.90
2023-04-29T04:53:48.819Z,18.08
2023-04-29T04:56:21.000Z,18.83
2023-04-29T04:58:48.415Z,18.60
2023-04-29T05:01:15.953Z,17.67
2023-04-29T05:03:44.064Z,18.70
2023-04-29T05:06:11.894Z,18.75
2023-04-29T05:08:41.456Z,18.83
2023-04-29T05:11:20.318Z,18.00
2023-04-29T05:14:01.167Z,17.63
2023-04-29T05:16:28.609Z,17.77
2023-04-29T05:18:56.074Z,17.13
2023-04-29T05:21:27.083Z,17.90
2023-04-29T05:23:54.526Z,18.25
2023-04-29T05:26:22.030Z,17.30
2023-04-29T05:28:50.901Z,18.05
2023-04-29T05:31:19.821Z,16.08
2023-04-29T05:33:47.498Z,17.15
2023-04-29T05:36:14.912Z,15.82
2023-04-29T05:38:45.253Z,17.52
2023-04-29T05:41:14.212Z,16.33
2023-04-29T05:43:41.652Z,18.17
2023-04-29T05:46:09.257Z,15.82
2023-04-29T05:48:36.717Z,17.75
2023-04-29T05:51:04.184Z,15.00
2023-04-29T05:53:33.646Z,15.55
2023-04-29T05:56:04.845Z,16.20
2023-04-29T05:58:32.308Z,15.13
2023-04-29T06:01:00.295Z,16.38
2023-04-29T06:03:28.496Z,15.77
2023-04-29T06:06:12.951Z,15.85
2023-04-29T06:08:47.528Z,16.48
2023-04-29T06:11:20.255Z,15.40
2023-04-29T06:13:47.699Z,15.00
2023-04-29T06:16:15.250Z,16.17
2023-04-29T06:18:42.652Z,15.88
2023-04-29T06:21:10.039Z,16.13
2023-04-29T06:23:37.525Z,15.25
2023-04-29T06:26:11.116Z,16.23
2023-04-29T06:28:38.621Z,16.13
2023-04-29T06:31:06.110Z,14.98
2023-04-29T06:33:34.208Z,14.88
2023-04-29T06:36:01.700Z,15.23
2023-04-29T06:38:51.830Z,14.48
2023-04-29T06:41:50.504Z,14.68
2023-04-29T06:44:39.656Z,14.10
2023-04-29T06:47:25.632Z,14.10
2023-04-29T06:50:06.648Z,14.45
2023-04-29T06:52:34.504Z,20.20
2023-04-29T06:55:02.026Z,15.23
2023-04-29T06:57:29.427Z,14.73
2023-04-29T06:59:56.853Z,13.70
2023-04-29T07:02:25.628Z,15.18
2023-04-29T07:04:53.221Z,15.05
2023-04-29T07:07:20.808Z,15.55
2023-04-29T07:09:52.138Z,15.32
2023-04-29T07:12:21.167Z,14.35
2023-04-29T07:14:48.522Z,14.48
2023-04-29T07:17:16.042Z,15.13
2023-04-29T07:19:43.859Z,15.23
2023-04-29T07:22:11.685Z,15.30
2023-04-29T07:24:39.107Z,15.23
2023-04-29T07:27:07.441Z,15.10
2023-04-29T07:29:37.042Z,17.27
2023-04-29T07:32:04.947Z,15.60
2023-04-29T07:34:32.300Z,15.70
2023-04-29T07:36:59.965Z,15.52
2023-04-29T07:39:28.999Z,15.13
2023-04-29T07:41:57.888Z,15.95
2023-04-29T07:44:25.377Z,14.95
2023-04-29T07:46:52.844Z,15.48
2023-04-29T07:49:20.208Z,16.33
2023-04-29T07:51:47.577Z,14.60
2023-04-29T07:54:16.520Z,17.40
2023-04-29T07:56:43.920Z,15.70
2023-04-29T07:59:11.348Z,15.25
2023-04-29T08:01:41.120Z,15.45
2023-04-29T08:04:09.158Z,14.88
2023-04-29T08:06:46.752Z,14.93
2023-04-29T08:09:14.200Z,15.13
2023-04-29T08:11:43.447Z,15.32
2023-04-29T08:14:13.323Z,15.15
2023-04-29T08:16:40.871Z,14.27
2023-04-29T08:19:08.313Z,12.43
2023-04-29T08:21:35.708Z,12.88
2023-04-29T08:24:03.129Z,12.93
2023-04-29T08:26:30.556Z,12.88
2023-04-29T08:28:57.924Z,13.77
2023-04-29T08:31:26.045Z,12.15
2023-04-29T08:33:53.636Z,11.00
2023-04-29T08:36:21.331Z,13.02
2023-04-29T08:38:49.011Z,12.55
2023-04-29T08:41:16.968Z,11.93
2023-04-29T08:43:44.567Z,11.23
2023-04-29T08:46:12.975Z,10.93
2023-04-29T08:48:44.186Z,11.20
2023-04-29T08:51:16.989Z,11.32
2023-04-29T08:53:44.641Z,11.15
2023-04-29T08:56:22.123Z,10.75
2023-04-29T08:58:54.787Z,11.80
2023-04-29T09:01:24.254Z,11.35
2023-04-29T09:04:03.842Z,8.93
2023-04-29T09:06:33.401Z,9.90
2023-04-29T09:09:03.053Z,10.93
2023-04-29T09:11:31.116Z,8.95
2023-04-29T09:14:02.398Z,9.32
2023-04-29T09:16:29.965Z,9.73
2023-04-29T09:18:57.622Z,9.43
2023-04-29T09:21:27.689Z,8.73
2023-04-29T09:24:03.407Z,10.10
2023-04-29T09:26:43.604Z,10.48
2023-04-29T09:29:18.325Z,10.02
2023-04-29T09:31:46.606Z,9.45
2023-04-29T09:34:16.971Z,10.18
2023-04-29T09:36:48.483Z,11.18
2023-04-29T09:39:20.899Z,11.33
2023-04-29T09:41:54.596Z,10.25
2023-04-29T09:44:35.919Z,9.73
2023-04-29T09:47:05.632Z,9.50
2023-04-29T09:49:39.790Z,8.88
2023-04-29T09:52:10.267Z,9.63
2023-04-29T09:54:39.767Z,8.90
2023-04-29T09:57:09.031Z,9.35
2023-04-29T09:59:38.725Z,9.85
2023-04-29T10:02:17.829Z,9.70
2023-04-29T10:04:47.279Z,9.73
2023-04-29T10:07:16.807Z,9.27
2023-04-29T10:09:48.984Z,9.40
2023-04-29T10:15:03.819Z,7.82
2023-04-29T10:17:45.169Z,9.13
2023-04-29T10:20:16.462Z,8.25
2023-04-29T10:22:48.990Z,8.98
2023-04-29T10:25:18.783Z,7.75
2023-04-29T10:27:47.401Z,9.32
2023-04-29T10:30:16.628Z,9.23
2023-04-29T10:32:51.120Z,8.75
2023-04-29T10:35:25.855Z,9.73
2023-04-29T10:37:54.247Z,9.40
2023-04-29T10:40:54.496Z,10.50
2023-04-29T10:43:26.430Z,9.95
2023-04-29T10:46:23.603Z,10.38
2023-04-29T10:48:56.385Z,9.40
2023-04-29T10:51:32.733Z,10.20
2023-04-29T10:54:03.272Z,10.68
2023-04-29T10:56:42.186Z,10.85
2023-04-29T10:59:17.363Z,11.45
2023-04-29T11:01:44.742Z,11.27
2023-04-29T11:04:13.535Z,11.23
2023-04-29T11:06:44.587Z,11.18
2023-04-29T11:09:37.214Z,11.40
2023-04-29T11:14:37.459Z,12.48
2023-04-29T11:17:13.020Z,11.32
2023-04-29T11:19:50.058Z,12.25
2023-04-29T11:22:24.186Z,11.77
2023-04-29T11:24:57.655Z,13.20
2023-04-29T11:27:30.065Z,12.45
2023-04-29T11:29:58.956Z,12.50
2023-04-29T11:32:34.235Z,13.15
2023-04-29T11:35:12.715Z,12.48
2023-04-29T11:37:41.095Z,11.27
2023-04-29T11:40:09.480Z,11.25
2023-04-29T11:42:42.833Z,11.75
2023-04-29T11:45:10.710Z,12.93
2023-04-29T11:47:42.670Z,12.50
2023-04-29T11:50:10.498Z,11.93
2023-04-29T11:52:39.418Z,12.05
2023-04-29T11:55:09.317Z,12.23
2023-04-29T11:57:37.034Z,13.93
2023-04-29T12:00:05.735Z,25.42
2023-04-29T12:02:35.950Z,14.45
2023-04-29T12:05:08.764Z,12.77
2023-04-29T12:10:11.818Z,12.10
2023-04-29T12:12:41.374Z,12.15
2023-04-29T12:15:12.861Z,12.35
2023-04-29T12:17:41.188Z,12.37
2023-04-29T12:20:10.621Z,12.88
2023-04-29T12:22:38.341Z,13.57
2023-04-29T12:25:07.306Z,13.18
2023-04-29T12:27:41.482Z,11.38
2023-04-29T12:30:10.499Z,12.07
2023-04-29T12:32:38.865Z,12.35
2023-04-29T12:35:07.363Z,11.25
2023-04-29T12:37:35.444Z,11.80
2023-04-29T12:40:03.719Z,12.52
2023-04-29T12:42:36.785Z,13.40
2023-04-29T12:45:06.647Z,12.55
2023-04-29T12:47:37.204Z,12.55
2023-04-29T12:50:07.294Z,11.98
2023-04-29T12:52:36.728Z,11.75
2023-04-29T12:55:05.036Z,11.93
2023-04-29T12:57:32.611Z,11.10
2023-04-29T13:00:00.145Z,11.68
2023-04-29T13:02:28.373Z,11.55
2023-04-29T13:04:56.224Z,12.95
2023-04-29T13:07:24.006Z,11.90
2023-04-29T13:09:53.929Z,11.05
2023-04-29T13:12:22.100Z,11.30
2023-04-29T13:14:49.503Z,12.07
2023-04-29T13:17:17.027Z,12.15
2023-04-29T13:19:51.818Z,12.02
2023-04-29T13:22:19.789Z,10.93
2023-04-29T13:24:47.523Z,12.00
2023-04-29T13:27:14.997Z,12.63
2023-04-29T13:29:42.361Z,11.45
2023-04-29T13:32:09.762Z,10.35
2023-04-29T13:34:37.312Z,10.23
2023-04-29T13:37:04.743Z,11.70
2023-04-29T13:39:32.121Z,9.77
2023-04-29T13:41:59.864Z,11.40
2023-04-29T13:44:33.296Z,10.05
2023-04-29T13:47:06.323Z,10.38
2023-04-29T13:50:14.466Z,9.70
2023-04-29T13:55:26.341Z,10.75
2023-04-29T14:00:54.574Z,16.05
2023-04-29T14:03:09.688Z,10.75
2023-04-29T14:05:39.875Z,11.52
2023-04-29T14:08:08.783Z,10.13
2023-04-29T14:10:38.587Z,14.05
2023-04-29T14:13:07.911Z,10.85
2023-04-29T14:15:37.576Z,9.35
2023-04-29T14:18:10.449Z,10.00
2023-04-29T14:20:40.403Z,9.95
2023-04-29T14:23:09.372Z,9.55
2023-04-29T14:25:39.328Z,11.80
2023-04-29T14:28:09.551Z,10.48
2023-04-29T14:30:38.500Z,10.35
2023-04-29T14:33:08.183Z,10.73
2023-04-29T14:35:37.460Z,10.70
2023-04-29T14:38:06.160Z,11.25
2023-04-29T14:40:34.218Z,11.13
2023-04-29T14:43:04.944Z,12.20
2023-04-29T14:45:34.935Z,10.95
2023-04-29T14:48:04.927Z,11.80
2023-04-29T14:50:34.715Z,11.05
2023-04-29T14:53:03.134Z,10.98
2023-04-29T14:55:32.740Z,11.38
2023-04-29T14:58:05.657Z,10.93
2023-04-29T15:00:35.517Z,12.07
2023-04-29T15:03:05.685Z,38.53
2023-04-29T15:05:35.766Z,11.00
2023-04-29T15:08:05.718Z,10.48
2023-04-29T15:10:34.434Z,11.35
2023-04-29T15:13:04.179Z,11.05
2023-04-29T15:15:32.403Z,11.27
2023-04-29T15:18:02.340Z,11.32
2023-04-29T15:20:31.276Z,11.32
2023-04-29T15:23:01.215Z,11.10
2023-04-29T15:25:30.218Z,11.50
2023-04-29T15:28:00.132Z,11.95
2023-04-29T15:30:29.152Z,11.25
2023-04-29T15:32:58.034Z,10.52
2023-04-29T15:35:28.839Z,11.57
2023-04-29T15:38:00.139Z,11.68
2023-04-29T15:40:29.084Z,12.45
2023-04-29T15:43:00.877Z,11.93
2023-04-29T15:45:31.689Z,11.50
2023-04-29T15:48:01.002Z,12.18
2023-04-29T15:50:29.963Z,11.48
2023-04-29T15:53:00.848Z,11.32
2023-04-29T15:55:30.746Z,11.63
2023-04-29T15:58:00.499Z,11.65
2023-04-29T16:00:29.660Z,12.60
2023-04-29T16:02:59.460Z,11.32
2023-04-29T16:05:29.773Z,11.70
2023-04-29T16:07:59.292Z,11.18
2023-04-29T16:10:29.294Z,11.10
2023-04-29T16:13:00.460Z,11.90
2023-04-29T16:15:31.936Z,10.10
2023-04-29T16:18:02.136Z,11.38
2023-04-29T16:20:31.769Z,11.35
2023-04-29T16:22:59.936Z,11.90
2023-04-29T16:25:28.929Z,11.23
2023-04-29T16:27:58.763Z,11.05
2023-04-29T16:30:28.622Z,12.70
2023-04-29T16:32:58.819Z,11.85
2023-04-29T16:35:30.025Z,12.50
2023-04-29T16:37:59.012Z,12.18
2023-04-29T16:40:28.838Z,12.80
2023-04-29T16:42:59.171Z,11.93
2023-04-29T16:45:28.478Z,12.05
2023-04-29T16:47:57.676Z,11.90
2023-04-29T16:50:28.389Z,11.60
2023-04-29T16:52:57.380Z,12.02
2023-04-29T16:55:25.640Z,12.50
2023-04-29T16:57:56.327Z,12.38
2023-04-29T17:00:28.801Z,12.80
2023-04-29T17:02:59.776Z,13.23
2023-04-29T17:05:29.192Z,12.43
2023-04-29T17:07:58.141Z,12.85
2023-04-29T17:10:27.312Z,13.35
2023-04-29T17:12:55.127Z,11.13
2023-04-29T17:15:22.566Z,12.88
2023-04-29T17:17:51.793Z,12.85
2023-04-29T17:20:19.250Z,13.32
2023-04-29T17:22:46.615Z,12.63
2023-04-29T17:25:15.668Z,12.00
2023-04-29T17:27:47.082Z,12.52
2023-04-29T17:30:14.513Z,12.85
2023-04-29T17:32:44.281Z,12.82
2023-04-29T17:35:11.904Z,13.50
2023-04-29T17:37:39.299Z,13.55
2023-04-29T17:40:07.615Z,12.35
2023-04-29T17:42:35.205Z,13.10
2023-04-29T17:45:02.654Z,13.25
2023-04-29T17:47:30.050Z,13.80
2023-04-29T17:50:00.322Z,15.80
2023-04-29T17:52:29.366Z,15.88
2023-04-29T17:54:56.739Z,17.95
2023-04-29T17:57:24.149Z,16.33
2023-04-29T17:59:51.801Z,17.00
2023-04-29T18:02:19.587Z,16.05
2023-04-29T18:04:47.271Z,16.42
2023-04-29T18:07:14.956Z,17.70
2023-04-29T18:09:42.358Z,19.40
2023-04-29T18:12:09.754Z,18.17
2023-04-29T18:14:39.094Z,16.92
2023-04-29T18:17:06.556Z,18.35
2023-04-29T18:19:34.841Z,17.08
2023-04-29T18:22:02.791Z,17.48
2023-04-29T18:24:30.206Z,16.55
2023-04-29T18:26:58.003Z,18.58
2023-04-29T18:29:25.538Z,15.40
2023-04-29T18:31:54.764Z,20.83
2023-04-29T18:34:22.360Z,28.63
2023-04-29T18:36:49.769Z,19.80
2023-04-29T18:39:18.030Z,17.60
2023-04-29T18:41:45.482Z,17.83
2023-04-29T18:44:13.162Z,17.77
2023-04-29T18:46:41.052Z,18.92
2023-04-29T18:49:11.751Z,18.15
2023-04-29T18:51:40.489Z,18.05
2023-04-29T18:54:07.887Z,18.55
2023-04-29T18:56:37.126Z,18.02
2023-04-29T18:59:05.726Z,18.80
2023-04-29T19:01:33.193Z,21.50
2023-04-29T19:04:04.488Z,18.00
2023-04-29T19:06:32.639Z,17.35
2023-04-29T19:09:00.755Z,20.38
2023-04-29T19:11:28.209Z,18.67
2023-04-29T19:13:55.989Z,17.38
2023-04-29T19:16:24.468Z,19.00
2023-04-29T19:18:52.008Z,19.10
2023-04-29T19:21:20.202Z,19.55
2023-04-29T19:23:47.627Z,18.48
2023-04-29T19:26:15.028Z,19.63
2023-04-29T19:28:42.427Z,17.67
2023-04-29T19:31:11.624Z,18.00
2023-04-29T19:33:39.166Z,17.90
2023-04-29T19:36:08.360Z,18.40
2023-04-29T19:38:36.243Z,19.17
2023-04-29T19:41:03.753Z,18.98
2023-04-29T19:43:31.824Z,23.23
2023-04-29T19:45:59.747Z,24.10
2023-04-29T19:48:27.256Z,26.15
2023-04-29T19:50:54.650Z,30.15
2023-04-29T19:53:22.034Z,22.88
2023-04-29T19:55:51.690Z,23.73
2023-04-29T19:58:19.491Z,25.17
2023-04-29T20:00:47.058Z,24.00
2023-04-29T20:03:14.522Z,23.13
2023-04-29T20:05:42.025Z,21.52
2023-04-29T20:08:09.461Z,19.65
2023-04-29T20:10:36.954Z,19.52
2023-04-29T20:13:04.376Z,19.10
2023-04-29T20:15:32.200Z,20.58
2023-04-29T20:17:59.618Z,19.48
2023-04-29T20:20:27.259Z,18.25
2023-04-29T20:23:00.331Z,19.70
2023-04-29T20:25:28.516Z,18.88
2023-04-29T20:27:57.504Z,19.88
2023-04-29T20:30:27.790Z,20.00
2023-04-29T20:32:55.324Z,19.83
2023-04-29T20:35:22.779Z,19.45
2023-04-29T20:37:50.260Z,20.17
2023-04-29T20:40:17.670Z,20.55
2023-04-29T20:42:45.321Z,19.88
2023-04-29T20:45:13.374Z,19.45
2023-04-29T20:47:41.417Z,18.80
2023-04-29T20:50:09.227Z,20.10
2023-04-29T20:52:37.173Z,19.45
2023-04-29T20:55:04.913Z,19.75
2023-04-29T20:57:32.824Z,19.85
2023-04-29T21:00:00.299Z,23.05
2023-04-29T21:02:27.777Z,21.00
2023-04-29T21:04:55.357Z,21.58
2023-04-29T21:07:22.770Z,21.85
2023-04-29T21:09:50.500Z,22.08
2023-04-29T21:12:17.916Z,23.30
2023-04-29T21:14:45.435Z,24.58
2023-04-29T21:17:12.888Z,22.58
2023-04-29T21:19:40.288Z,22.65
2023-04-29T21:22:08.060Z,22.70
2023-04-29T21:24:35.435Z,23.00
2023-04-29T21:27:02.910Z,26.23
2023-04-29T21:29:30.459Z,24.25
2023-04-29T21:31:57.819Z,25.23
2023-04-29T21:34:25.209Z,23.65
2023-04-29T21:36:52.642Z,26.20
2023-04-29T21:39:20.034Z,26.83
2023-04-29T21:41:47.519Z,27.42
2023-04-29T21:44:15.212Z,27.90
2023-04-29T21:46:42.773Z,27.75
2023-04-29T21:49:10.380Z,29.13
2023-04-29T21:51:37.836Z,27.60
2023-04-29T21:54:08.425Z,27.77
2023-04-29T21:56:35.964Z,27.88
2023-04-29T21:59:03.549Z,26.13
2023-04-29T22:01:44.043Z,28.67
2023-04-29T22:04:11.669Z,26.25
2023-04-29T22:06:39.407Z,27.33
2023-04-29T22:09:07.300Z,28.00
2023-04-29T22:11:34.919Z,26.95
2023-04-29T22:14:02.310Z,29.83
2023-04-29T22:16:29.711Z,27.60
2023-04-29T22:18:57.847Z,28.77
2023-04-29T22:21:25.393Z,26.27
2023-04-29T22:23:52.798Z,28.33
2023-04-29T22:26:20.272Z,28.50
2023-04-29T22:28:47.741Z,27.35
2023-04-29T22:31:15.169Z,26.92
2023-04-29T22:33:42.604Z,27.80
2023-04-29T22:36:09.982Z,27.17
2023-04-29T22:38:37.945Z,26.65
2023-04-29T22:41:06.318Z,28.88
2023-04-29T22:43:33.715Z,28.55
2023-04-29T22:46:01.180Z,27.73
2023-04-29T22:48:28.722Z,27.80
2023-04-29T22:50:59.385Z,28.75
2023-04-29T22:53:27.056Z,27.42
2023-04-29T22:55:56.321Z,27.25
2023-04-29T22:58:25.387Z,28.63
2023-04-29T23:00:57.669Z,30.30
2023-04-29T23:05:59.772Z,26.08
2023-04-29T23:08:27.726Z,27.15
2023-04-29T23:10:55.386Z,28.35
2023-04-29T23:13:22.808Z,28.83
2023-04-29T23:15:50.271Z,26.98
2023-04-29T23:18:17.718Z,26.55
2023-04-29T23:20:48.338Z,30.10
2023-04-29T23:23:15.860Z,28.30
2023-04-29T23:25:43.669Z,28.60
2023-04-29T23:28:11.430Z,26.08
2023-04-29T23:30:38.955Z,27.55
2023-04-29T23:33:06.515Z,25.08
2023-04-29T23:35:33.974Z,26.63
2023-04-29T23:38:01.388Z,23.95
2023-04-29T23:40:29.296Z,25.63
2023-04-29T23:42:57.278Z,24.38
2023-04-29T23:45:24.791Z,23.90
2023-04-29T23:47:52.198Z,25.67
2023-04-29T23:50:19.658Z,26.95
2023-04-29T23:52:47.049Z,23.38
2023-04-29T23:55:14.465Z,24.25
2023-04-29T23:57:41.915Z,25.38
